createdAt,value
2018-11-03T00:00:52.967Z,9.37
2018-11-03T00:03:33.590Z,9.41
2018-11-03T00:06:02.101Z,9.38
2018-11-03T00:08:30.659Z,9.29
2018-11-03T00:10:59.229Z,9.32
2018-11-03T00:13:27.758Z,9.31
2018-11-03T00:15:56.250Z,9.35
2018-11-03T00:18:24.781Z,9.39
2018-11-03T00:20:53.270Z,9.31
2018-11-03T00:23:21.845Z,9.41
2018-11-03T00:25:50.320Z,9.45
2018-11-03T00:28:18.833Z,9.48
2018-11-03T00:30:47.365Z,9.45
2018-11-03T00:33:15.876Z,9.45
2018-11-03T00:35:44.372Z,9.44
2018-11-03T00:38:15.654Z,9.50
2018-11-03T00:40:44.770Z,9.48
2018-11-03T00:43:15.849Z,9.42
2018-11-03T00:45:47.583Z,9.49
2018-11-03T00:48:16.059Z,9.48
2018-11-03T00:50:44.581Z,9.49
2018-11-03T00:53:13.065Z,9.46
2018-11-03T00:55:41.569Z,9.52
2018-11-03T00:58:16.086Z,9.63
2018-11-03T01:00:44.925Z,9.63
2018-11-03T01:03:13.383Z,9.63
2018-11-03T01:05:41.895Z,9.67
2018-11-03T01:08:10.445Z,9.63
2018-11-03T01:10:38.967Z,9.63
2018-11-03T01:13:07.460Z,9.71
2018-11-03T01:15:35.982Z,9.45
2018-11-03T01:18:04.474Z,9.50
2018-11-03T01:20:32.957Z,9.35
2018-11-03T01:23:04.688Z,9.26
2018-11-03T01:25:35.605Z,9.16
2018-11-03T01:28:04.276Z,9.00
2018-11-03T01:30:32.782Z,9.13
2018-11-03T01:33:01.382Z,9.02
2018-11-03T01:35:29.813Z,9.01
2018-11-03T01:37:58.297Z,9.03
2018-11-03T01:40:26.786Z,9.04
2018-11-03T01:42:55.270Z,9.02
2018-11-03T01:45:23.809Z,9.07
2018-11-03T01:47:52.311Z,9.06
2018-11-03T01:50:20.867Z,9.10
2018-11-03T01:52:49.391Z,9.11
2018-11-03T01:55:18.463Z,9.18
2018-11-03T01:57:46.994Z,9.08
2018-11-03T02:00:18.541Z,9.13
2018-11-03T02:02:50.707Z,9.05
2018-11-03T02:05:19.359Z,8.99
2018-11-03T02:11:13.688Z,8.99
2018-11-03T02:14:15.920Z,9.08
2018-11-03T02:17:00.891Z,9.07
2018-11-03T02:19:30.662Z,9.05
2018-11-03T02:21:59.145Z,9.12
2018-11-03T02:24:28.007Z,8.93
2018-11-03T02:26:56.941Z,8.80
2018-11-03T02:29:31.348Z,8.86
2018-11-03T02:31:59.995Z,8.77
2018-11-03T02:34:28.531Z,8.76
2018-11-03T02:36:57.040Z,8.77
2018-11-03T02:39:28.626Z,8.86
2018-11-03T02:42:01.848Z,8.93
2018-11-03T02:44:33.761Z,8.85
2018-11-03T02:47:05.357Z,8.89
2018-11-03T02:49:39.891Z,8.68
2018-11-03T02:52:12.626Z,8.68
2018-11-03T02:54:41.269Z,8.62
2018-11-03T02:57:09.748Z,8.77
2018-11-03T02:59:38.288Z,8.81
2018-11-03T03:02:06.820Z,8.81
2018-11-03T03:04:38.938Z,8.79
2018-11-03T03:07:10.733Z,8.94
2018-11-03T03:09:42.334Z,8.96
2018-11-03T03:12:17.294Z,9.06
2018-11-03T03:14:50.823Z,9.07
2018-11-03T03:17:23.813Z,9.13
2018-11-03T03:19:56.287Z,8.98
2018-11-03T03:22:28.329Z,9.10
2018-11-03T03:24:59.839Z,9.03
2018-11-03T03:30:05.182Z,9.15
2018-11-03T03:32:33.653Z,9.23
2018-11-03T03:35:02.157Z,9.18
2018-11-03T03:37:33.899Z,9.21
2018-11-03T03:40:02.678Z,9.17
2018-11-03T03:42:31.191Z,9.22
2018-11-03T03:44:59.744Z,9.26
2018-11-03T03:47:28.204Z,9.07
2018-11-03T03:49:56.762Z,9.13
2018-11-03T03:52:25.286Z,9.08
2018-11-03T03:54:53.822Z,9.13
2018-11-03T03:57:22.325Z,9.13
2018-11-03T03:59:50.842Z,9.10
2018-11-03T04:02:19.358Z,9.03
2018-11-03T04:04:47.826Z,9.02
2018-11-03T04:07:16.314Z,9.00
2018-11-03T04:09:44.822Z,9.03
2018-11-03T04:12:13.342Z,9.07
2018-11-03T04:14:41.820Z,9.04
2018-11-03T04:20:41.443Z,9.04
2018-11-03T04:23:10.239Z,9.01
2018-11-03T04:25:44.048Z,9.03
2018-11-03T04:28:14.699Z,8.98
2018-11-03T04:30:44.404Z,9.03
2018-11-03T04:33:16.470Z,8.90
2018-11-03T04:39:30.026Z,8.81
2018-11-03T04:42:29.348Z,8.78
2018-11-03T04:44:59.352Z,8.88
2018-11-03T04:47:38.893Z,8.72
2018-11-03T04:50:13.907Z,8.80
2018-11-03T04:52:42.408Z,8.87
2018-11-03T04:55:11.100Z,8.94
2018-11-03T04:57:39.489Z,9.04
2018-11-03T05:00:11.772Z,9.06
2018-11-03T05:02:42.358Z,9.08
2018-11-03T05:05:13.907Z,9.10
2018-11-03T05:07:45.371Z,9.13
2018-11-03T05:10:15.805Z,9.11
2018-11-03T05:12:47.743Z,9.17
2018-11-03T05:15:18.692Z,9.22
2018-11-03T05:17:50.367Z,9.24
2018-11-03T05:20:23.195Z,9.26
2018-11-03T05:22:51.668Z,9.23
2018-11-03T05:25:27.635Z,9.23
2018-11-03T05:27:56.552Z,9.23
2018-11-03T05:30:28.773Z,9.05
2018-11-03T05:32:57.508Z,8.96
2018-11-03T05:35:26.018Z,8.82
2018-11-03T05:37:54.575Z,8.62
2018-11-03T05:40:23.078Z,8.55
2018-11-03T05:42:51.561Z,8.54
2018-11-03T05:45:20.072Z,8.48
2018-11-03T05:47:48.565Z,8.37
2018-11-03T05:50:17.074Z,8.23
2018-11-03T05:52:45.547Z,8.28
2018-11-03T05:55:14.035Z,8.31
2018-11-03T05:57:42.485Z,8.36
2018-11-03T06:00:11.079Z,8.40
2018-11-03T06:02:39.581Z,8.47
2018-11-03T06:05:08.077Z,8.61
2018-11-03T06:07:36.569Z,8.79
2018-11-03T06:10:06.053Z,8.86
2018-11-03T06:12:34.554Z,9.00
2018-11-03T06:15:03.030Z,9.10
2018-11-03T06:17:31.568Z,9.22
2018-11-03T06:20:00.107Z,9.20
2018-11-03T06:22:28.654Z,9.27
2018-11-03T06:24:57.170Z,9.35
2018-11-03T06:27:25.688Z,9.40
2018-11-03T06:29:54.200Z,9.49
2018-11-03T06:32:22.711Z,9.52
2018-11-03T06:34:51.190Z,9.53
2018-11-03T06:37:19.770Z,9.53
2018-11-03T06:39:48.283Z,9.40
2018-11-03T06:42:16.795Z,9.40
2018-11-03T06:44:45.262Z,9.50
2018-11-03T06:47:13.833Z,9.48
2018-11-03T06:49:42.295Z,9.39
2018-11-03T06:52:10.880Z,9.30
2018-11-03T06:54:39.371Z,9.13
2018-11-03T06:57:07.903Z,9.14
2018-11-03T06:59:36.393Z,9.07
2018-11-03T07:02:04.976Z,8.94
2018-11-03T07:04:33.472Z,8.94
2018-11-03T07:07:01.990Z,8.92
2018-11-03T07:09:38.597Z,8.89
2018-11-03T07:12:07.242Z,8.97
2018-11-03T07:14:35.737Z,9.06
2018-11-03T07:17:04.250Z,9.14
2018-11-03T07:19:32.772Z,9.29
2018-11-03T07:22:03.661Z,9.54
2018-11-03T07:24:32.298Z,9.68
2018-11-03T07:27:00.823Z,9.58
2018-11-03T07:29:29.436Z,9.83
2018-11-03T07:31:57.913Z,9.95
2018-11-03T07:34:28.826Z,9.91
2018-11-03T07:36:57.535Z,9.92
2018-11-03T07:39:26.082Z,9.98
2018-11-03T07:41:54.629Z,9.99
2018-11-03T07:44:23.153Z,9.95
2018-11-03T07:46:51.665Z,10.07
2018-11-03T07:49:20.219Z,9.98
2018-11-03T07:51:52.490Z,10.08
2018-11-03T07:54:23.870Z,10.04
2018-11-03T07:56:56.001Z,10.31
2018-11-03T07:59:29.024Z,10.26
2018-11-03T08:02:00.447Z,10.54
2018-11-03T08:04:41.571Z,10.87
2018-11-03T08:07:10.488Z,11.11
2018-11-03T08:09:38.949Z,11.26
2018-11-03T08:12:07.471Z,11.35
2018-11-03T08:14:35.935Z,11.27
2018-11-03T08:17:15.851Z,11.21
2018-11-03T08:19:44.662Z,11.28
2018-11-03T08:22:13.197Z,11.19
2018-11-03T08:24:41.674Z,11.49
2018-11-03T08:27:10.243Z,11.52
2018-11-03T08:29:40.551Z,11.73
2018-11-03T08:32:09.148Z,12.19
2018-11-03T08:34:38.230Z,12.36
2018-11-03T08:37:08.760Z,12.33
2018-11-03T08:39:42.421Z,12.22
2018-11-03T08:42:10.907Z,11.77
2018-11-03T08:44:43.235Z,11.79
2018-11-03T08:47:15.486Z,11.84
2018-11-03T08:49:44.241Z,11.85
2018-11-03T08:52:12.777Z,11.88
2018-11-03T08:54:41.303Z,11.93
2018-11-03T08:57:12.484Z,12.40
2018-11-03T08:59:41.293Z,12.66
2018-11-03T09:02:09.747Z,12.82
2018-11-03T09:04:38.287Z,13.02
2018-11-03T09:07:10.941Z,12.82
2018-11-03T09:09:41.508Z,12.70
2018-11-03T09:12:12.264Z,12.74
2018-11-03T09:14:40.920Z,13.07
2018-11-03T09:17:09.587Z,13.22
2018-11-03T09:19:38.071Z,13.19
2018-11-03T09:22:06.668Z,13.03
2018-11-03T09:24:35.232Z,12.90
2018-11-03T09:27:07.168Z,12.65
2018-11-03T09:29:35.662Z,12.48
2018-11-03T09:32:04.358Z,12.65
2018-11-03T09:34:32.862Z,12.43
2018-11-03T09:37:01.341Z,12.30
2018-11-03T09:39:29.880Z,12.15
2018-11-03T09:42:01.321Z,12.23
2018-11-03T09:44:30.053Z,12.24
2018-11-03T09:46:58.586Z,12.42
2018-11-03T09:49:27.086Z,12.24
2018-11-03T09:51:55.662Z,12.21
2018-11-03T09:54:24.144Z,12.24
2018-11-03T09:56:52.667Z,12.54
2018-11-03T09:59:21.153Z,12.70
2018-11-03T10:01:49.692Z,12.97
2018-11-03T10:04:18.238Z,13.23
2018-11-03T10:06:46.772Z,13.44
2018-11-03T10:09:18.086Z,13.53
2018-11-03T10:11:50.582Z,13.58
2018-11-03T10:14:19.425Z,13.56
2018-11-03T10:16:47.957Z,13.59
2018-11-03T10:19:16.468Z,13.37
2018-11-03T10:21:45.002Z,13.26
2018-11-03T10:24:13.522Z,13.46
2018-11-03T10:26:42.006Z,13.80
2018-11-03T10:29:10.531Z,13.85
2018-11-03T10:31:39.026Z,14.29
2018-11-03T10:34:09.858Z,14.58
2018-11-03T10:36:38.610Z,14.70
2018-11-03T10:39:13.459Z,14.92
2018-11-03T10:41:44.501Z,15.23
2018-11-03T10:44:13.229Z,15.18
2018-11-03T10:46:41.731Z,15.27
2018-11-03T10:49:14.198Z,14.77
2018-11-03T10:51:44.771Z,14.53
2018-11-03T10:54:13.521Z,14.81
2018-11-03T10:56:45.684Z,15.07
2018-11-03T10:59:17.295Z,15.22
2018-11-03T11:01:51.607Z,15.36
2018-11-03T11:04:26.011Z,15.50
2018-11-03T11:07:02.724Z,15.38
2018-11-03T11:09:37.895Z,15.21
2018-11-03T11:12:16.525Z,15.24
2018-11-03T11:14:45.247Z,15.26
2018-11-03T11:17:13.798Z,15.11
2018-11-03T11:19:47.528Z,15.33
2018-11-03T11:22:16.221Z,15.52
2018-11-03T11:24:44.776Z,15.40
2018-11-03T11:27:13.321Z,15.70
2018-11-03T11:29:44.525Z,15.98
2018-11-03T11:32:15.566Z,16.34
2018-11-03T11:34:59.181Z,16.46
2018-11-03T11:37:29.050Z,16.75
2018-11-03T11:39:57.600Z,16.72
2018-11-03T11:42:30.055Z,16.45
2018-11-03T11:45:01.896Z,16.75
2018-11-03T11:47:33.052Z,17.00
2018-11-03T11:50:04.706Z,17.05
2018-11-03T11:52:50.033Z,16.78
2018-11-03T11:55:18.940Z,16.51
2018-11-03T11:57:47.616Z,16.70
2018-11-03T12:00:16.169Z,17.06
2018-11-03T12:02:44.678Z,17.06
2018-11-03T12:05:13.258Z,17.18
2018-11-03T12:07:41.759Z,17.48
2018-11-03T12:10:10.423Z,17.32
2018-11-03T12:12:40.898Z,17.15
2018-11-03T12:15:12.347Z,17.08
2018-11-03T12:17:41.066Z,16.87
2018-11-03T12:20:09.975Z,17.12
2018-11-03T12:22:39.230Z,17.01
2018-11-03T12:25:09.269Z,17.22
2018-11-03T12:27:37.848Z,17.21
2018-11-03T12:30:08.411Z,17.07
2018-11-03T12:32:36.954Z,16.92
2018-11-03T12:35:07.671Z,16.99
2018-11-03T12:37:37.013Z,16.61
2018-11-03T12:40:07.018Z,16.27
2018-11-03T12:42:35.555Z,16.28
2018-11-03T12:45:05.787Z,16.18
2018-11-03T12:47:34.416Z,16.18
2018-11-03T12:50:05.718Z,16.13
2018-11-03T12:52:34.403Z,16.01
2018-11-03T12:55:02.971Z,15.91
2018-11-03T12:57:31.540Z,15.96
2018-11-03T13:00:07.729Z,16.22
2018-11-03T13:02:36.384Z,16.30
2018-11-03T13:05:05.491Z,16.47
2018-11-03T13:07:33.920Z,16.44
2018-11-03T13:10:02.556Z,16.24
2018-11-03T13:12:30.986Z,16.13
2018-11-03T13:14:59.507Z,16.18
2018-11-03T13:17:27.996Z,16.25
2018-11-03T13:19:56.529Z,16.32
2018-11-03T13:22:25.088Z,16.34
2018-11-03T13:25:13.836Z,16.34
2018-11-03T13:27:42.930Z,16.29
2018-11-03T13:30:13.482Z,16.44
2018-11-03T13:32:42.005Z,16.45
2018-11-03T13:35:11.837Z,16.31
2018-11-03T13:37:40.758Z,16.32
2018-11-03T13:40:10.761Z,16.29
2018-11-03T13:42:39.341Z,16.15
2018-11-03T13:45:08.598Z,15.99
2018-11-03T13:47:38.130Z,15.79
2018-11-03T13:50:14.264Z,15.85
2018-11-03T13:52:44.357Z,15.90
2018-11-03T13:55:12.983Z,15.96
2018-11-03T13:57:42.679Z,16.12
2018-11-03T14:00:19.344Z,16.11
2018-11-03T14:03:19.036Z,15.88
2018-11-03T14:05:48.225Z,16.01
2018-11-03T14:08:22.995Z,16.08
2018-11-03T14:10:52.635Z,16.21
2018-11-03T14:13:23.746Z,16.21
2018-11-03T14:15:53.778Z,16.21
2018-11-03T14:18:24.527Z,16.15
2018-11-03T14:20:54.107Z,16.01
2018-11-03T14:23:23.766Z,15.88
2018-11-03T14:25:53.037Z,15.81
2018-11-03T14:28:21.699Z,15.79
2018-11-03T14:30:51.126Z,15.80
2018-11-03T14:33:22.960Z,15.65
2018-11-03T14:35:58.571Z,15.68
2018-11-03T14:38:50.884Z,15.66
2018-11-03T14:41:39.864Z,15.58
2018-11-03T14:44:28.359Z,15.52
2018-11-03T14:46:58.747Z,15.36
2018-11-03T14:50:05.769Z,15.24
2018-11-03T14:52:44.495Z,15.15
2018-11-03T14:55:16.001Z,15.07
2018-11-03T14:57:47.339Z,14.94
2018-11-03T15:00:18.022Z,14.63
2018-11-03T15:02:48.269Z,14.56
2018-11-03T15:05:19.110Z,14.59
2018-11-03T15:07:58.064Z,14.45
2018-11-03T15:11:04.091Z,14.29
2018-11-03T15:13:40.734Z,13.93
2018-11-03T15:16:12.227Z,14.02
2018-11-03T15:18:42.438Z,14.01
2018-11-03T15:21:14.092Z,13.98
2018-11-03T15:23:42.770Z,13.98
2018-11-03T15:26:11.351Z,13.98
2018-11-03T15:28:39.855Z,13.88
2018-11-03T15:31:08.372Z,13.89
2018-11-03T15:33:36.886Z,13.86
2018-11-03T15:36:07.945Z,13.84
2018-11-03T15:38:36.575Z,13.77
2018-11-03T15:41:08.218Z,13.66
2018-11-03T15:43:37.052Z,13.56
2018-11-03T15:46:06.141Z,13.58
2018-11-03T15:48:34.710Z,13.54
2018-11-03T15:51:03.263Z,13.42
2018-11-03T15:53:31.810Z,13.36
2018-11-03T15:56:00.396Z,13.35
2018-11-03T15:58:28.959Z,13.23
2018-11-03T16:00:57.498Z,13.26
2018-11-03T16:03:27.778Z,13.19
2018-11-03T16:06:03.024Z,13.19
2018-11-03T16:08:49.629Z,13.08
2018-11-03T16:11:31.214Z,13.03
2018-11-03T16:14:12.712Z,12.98
2018-11-03T16:16:56.335Z,12.94
2018-11-03T16:19:34.005Z,12.84
2018-11-03T16:22:06.404Z,12.81
2018-11-03T16:24:40.518Z,12.62
2018-11-03T16:27:09.298Z,12.67
2018-11-03T16:29:37.835Z,12.70
2018-11-03T16:32:07.379Z,12.63
2018-11-03T16:34:44.215Z,12.57
2018-11-03T16:37:12.743Z,12.56
2018-11-03T16:39:41.403Z,12.56
2018-11-03T16:42:10.545Z,12.59
2018-11-03T16:44:50.576Z,12.61
2018-11-03T16:47:19.150Z,12.53
2018-11-03T16:49:47.619Z,12.45
2018-11-03T16:52:17.363Z,12.47
2018-11-03T16:54:45.878Z,12.49
2018-11-03T16:57:14.394Z,12.45
2018-11-03T16:59:42.881Z,12.42
2018-11-03T17:02:11.377Z,12.50
2018-11-03T17:04:45.567Z,12.48
2018-11-03T17:07:14.337Z,12.47
2018-11-03T17:09:42.835Z,12.46
2018-11-03T17:12:11.454Z,12.50
2018-11-03T17:14:40.012Z,12.35
2018-11-03T17:17:08.558Z,12.34
2018-11-03T17:19:37.088Z,12.39
2018-11-03T17:22:05.781Z,12.44
2018-11-03T17:24:34.317Z,12.48
2018-11-03T17:27:02.837Z,12.44
2018-11-03T17:29:31.379Z,12.41
2018-11-03T17:31:59.921Z,12.37
2018-11-03T17:34:28.452Z,12.37
2018-11-03T17:36:57.281Z,12.36
2018-11-03T17:39:25.798Z,12.39
2018-11-03T17:41:54.323Z,12.40
2018-11-03T17:44:22.823Z,12.40
2018-11-03T17:46:51.342Z,12.36
2018-11-03T17:49:19.884Z,12.35
2018-11-03T17:51:48.735Z,12.39
2018-11-03T17:54:17.611Z,12.32
2018-11-03T17:56:46.182Z,12.32
2018-11-03T17:59:14.690Z,12.34
2018-11-03T18:01:43.219Z,12.20
2018-11-03T18:04:11.768Z,12.19
2018-11-03T18:06:40.327Z,12.10
2018-11-03T18:09:09.556Z,12.13
2018-11-03T18:11:38.103Z,12.19
2018-11-03T18:14:06.672Z,12.26
2018-11-03T18:16:35.289Z,12.19
2018-11-03T18:19:03.831Z,12.12
2018-11-03T18:21:36.277Z,12.15
2018-11-03T18:24:05.014Z,12.01
2018-11-03T18:26:33.624Z,11.97
2018-11-03T18:29:02.148Z,11.98
2018-11-03T18:31:30.689Z,11.99
2018-11-03T18:33:59.243Z,12.04
2018-11-03T18:36:27.765Z,12.02
2018-11-03T18:38:56.249Z,11.96
2018-11-03T18:41:24.835Z,12.03
2018-11-03T18:43:53.355Z,12.01
2018-11-03T18:46:21.959Z,12.02
2018-11-03T18:48:50.462Z,12.00
2018-11-03T18:51:19.012Z,12.03
2018-11-03T18:53:48.376Z,11.90
2018-11-03T18:56:17.862Z,11.95
2018-11-03T18:58:47.061Z,11.94
2018-11-03T19:01:18.929Z,11.80
2018-11-03T19:03:47.626Z,11.85
2018-11-03T19:06:16.179Z,11.90
2018-11-03T19:08:44.788Z,11.94
2018-11-03T19:11:13.339Z,11.88
2018-11-03T19:13:41.858Z,11.91
2018-11-03T19:16:10.460Z,11.92
2018-11-03T19:18:44.033Z,11.90
2018-11-03T19:21:14.345Z,11.86
2018-11-03T19:23:46.328Z,11.85
2018-11-03T19:26:15.131Z,11.93
2018-11-03T19:28:43.610Z,11.89
2018-11-03T19:31:12.162Z,11.80
2018-11-03T19:33:40.777Z,11.72
2018-11-03T19:36:09.334Z,11.73
2018-11-03T19:38:37.868Z,11.77
2018-11-03T19:41:06.464Z,11.64
2018-11-03T19:43:35.106Z,11.68
2018-11-03T19:46:03.781Z,11.67
2018-11-03T19:48:32.296Z,11.70
2018-11-03T19:51:00.795Z,11.69
2018-11-03T19:53:29.601Z,11.72
2018-11-03T19:55:58.142Z,11.72
2018-11-03T19:58:27.697Z,11.66
2018-11-03T20:00:57.526Z,11.73
2018-11-03T20:03:26.134Z,11.77
2018-11-03T20:05:55.862Z,11.75
2018-11-03T20:08:24.404Z,11.88
2018-11-03T20:10:52.977Z,11.80
2018-11-03T20:13:21.531Z,11.74
2018-11-03T20:15:50.052Z,11.75
2018-11-03T20:18:22.394Z,11.76
2018-11-03T20:20:55.095Z,11.78
2018-11-03T20:23:23.846Z,11.81
2018-11-03T20:25:52.358Z,11.85
2018-11-03T20:28:20.914Z,11.77
2018-11-03T20:30:49.798Z,11.75
2018-11-03T20:33:19.220Z,11.80
2018-11-03T20:35:50.570Z,11.80
2018-11-03T20:38:19.228Z,11.79
2018-11-03T20:40:47.717Z,11.79
2018-11-03T20:43:16.795Z,11.86
2018-11-03T20:45:45.340Z,11.83
2018-11-03T20:48:13.952Z,11.77
2018-11-03T20:50:42.475Z,11.81
2018-11-03T20:53:11.044Z,11.73
2018-11-03T20:55:39.562Z,11.72
2018-11-03T20:58:08.108Z,11.76
2018-11-03T21:00:36.593Z,11.79
2018-11-03T21:03:05.187Z,11.78
2018-11-03T21:05:33.684Z,11.75
2018-11-03T21:08:02.595Z,11.73
2018-11-03T21:10:31.111Z,11.73
2018-11-03T21:12:59.628Z,11.77
2018-11-03T21:15:28.173Z,11.79
2018-11-03T21:17:56.698Z,11.80
2018-11-03T21:20:26.050Z,11.80
2018-11-03T21:22:54.662Z,11.83
2018-11-03T21:25:23.079Z,11.84
2018-11-03T21:27:51.747Z,11.80
2018-11-03T21:30:20.412Z,11.83
2018-11-03T21:32:48.933Z,11.74
2018-11-03T21:35:17.380Z,11.81
2018-11-03T21:37:45.887Z,11.85
2018-11-03T21:40:14.395Z,11.84
2018-11-03T21:42:42.906Z,11.89
2018-11-03T21:45:11.480Z,11.87
2018-11-03T21:47:40.936Z,11.84
2018-11-03T21:50:10.140Z,11.88
2018-11-03T21:52:38.722Z,11.79
2018-11-03T21:55:07.831Z,11.82
2018-11-03T21:57:36.560Z,11.83
2018-11-03T22:00:06.061Z,11.81
2018-11-03T22:02:34.556Z,11.82
2018-11-03T22:05:03.075Z,11.84
2018-11-03T22:07:31.575Z,11.81
2018-11-03T22:10:00.220Z,11.88
2018-11-03T22:12:28.706Z,11.86
2018-11-03T22:14:57.245Z,11.88
2018-11-03T22:17:25.788Z,11.83
2018-11-03T22:19:54.328Z,11.75
2018-11-03T22:22:22.814Z,11.75
2018-11-03T22:24:51.874Z,11.82
2018-11-03T22:27:20.364Z,11.80
2018-11-03T22:29:48.868Z,11.74
2018-11-03T22:32:17.435Z,11.75
2018-11-03T22:34:45.976Z,11.75
2018-11-03T22:37:14.515Z,11.80
2018-11-03T22:39:43.029Z,11.71
2018-11-03T22:42:11.565Z,11.73
2018-11-03T22:44:40.642Z,11.78
2018-11-03T22:47:09.165Z,11.85
2018-11-03T22:49:37.711Z,11.86
2018-11-03T22:52:07.381Z,11.88
2018-11-03T22:54:36.753Z,11.83
2018-11-03T22:57:05.401Z,11.82
2018-11-03T22:59:33.903Z,11.80
2018-11-03T23:02:02.463Z,11.86
2018-11-03T23:04:31.035Z,11.85
2018-11-03T23:06:59.599Z,11.82
2018-11-03T23:09:28.121Z,11.78
2018-11-03T23:11:56.654Z,11.73
2018-11-03T23:14:25.176Z,11.71
2018-11-03T23:16:53.710Z,11.75
2018-11-03T23:19:22.255Z,11.80
2018-11-03T23:21:50.822Z,11.78
2018-11-03T23:24:19.313Z,11.72
2018-11-03T23:26:47.830Z,11.71
2018-11-03T23:29:16.310Z,11.71
2018-11-03T23:31:49.584Z,11.65
2018-11-03T23:34:19.696Z,11.68
2018-11-03T23:36:48.367Z,11.64
2018-11-03T23:39:16.870Z,11.64
2018-11-03T23:41:45.387Z,11.57
2018-11-03T23:44:13.886Z,11.55
2018-11-03T23:46:42.948Z,11.62
2018-11-03T23:49:11.489Z,11.63
2018-11-03T23:51:40.050Z,11.61
2018-11-03T23:54:08.574Z,11.61
2018-11-03T23:56:39.875Z,11.60
2018-11-03T23:59:08.842Z,11.63
